createdAt,value
2019-03-28T00:03:00.228Z,44.12
2019-03-28T00:07:05.930Z,44.12
2019-03-28T00:11:11.616Z,49.57
2019-03-28T00:15:17.324Z,46.13
2019-03-28T00:19:23.017Z,45.26
2019-03-28T00:23:42.635Z,46.06
2019-03-28T00:27:48.336Z,46.92
2019-03-28T00:31:54.128Z,44.84
2019-03-28T00:36:00.293Z,45.46
2019-03-28T00:40:08.718Z,47.71
2019-03-28T00:44:14.414Z,48.77
2019-03-28T00:48:20.125Z,48.58
2019-03-28T00:52:25.811Z,46.65
2019-03-28T00:56:44.746Z,44.11
2019-03-28T01:00:38.964Z,44.14
2019-03-28T01:04:44.653Z,46.50
2019-03-28T01:08:50.356Z,48.31
2019-03-28T01:12:56.054Z,47.04
2019-03-28T01:17:01.776Z,46.56
2019-03-28T01:21:07.499Z,48.01
2019-03-28T01:25:13.265Z,46.02
2019-03-28T01:29:18.950Z,51.44
2019-03-28T01:33:24.641Z,46.93
2019-03-28T01:37:30.339Z,44.41
2019-03-28T01:41:36.114Z,44.00
2019-03-28T01:45:41.884Z,47.91
2019-03-28T01:49:47.554Z,45.30
2019-03-28T01:53:53.240Z,49.20
2019-03-28T01:57:58.936Z,47.92
2019-03-28T02:02:04.625Z,52.04
2019-03-28T02:06:10.337Z,45.71
2019-03-28T02:10:17.859Z,51.48
2019-03-28T02:14:23.545Z,44.67
2019-03-28T02:18:29.293Z,49.07
2019-03-28T02:22:35.093Z,49.67
2019-03-28T02:26:40.841Z,49.32
2019-03-28T02:30:46.538Z,51.69
2019-03-28T02:34:52.305Z,48.55
2019-03-28T02:38:58.587Z,44.14
2019-03-28T02:43:04.362Z,49.06
2019-03-28T02:47:10.074Z,45.39
2019-03-28T02:51:15.728Z,47.52
2019-03-28T02:55:21.408Z,48.50
2019-03-28T02:59:27.098Z,49.81
2019-03-28T03:03:32.782Z,47.94
2019-03-28T03:07:38.486Z,47.95
2019-03-28T03:11:44.180Z,44.47
2019-03-28T03:15:49.869Z,49.13
2019-03-28T03:19:55.571Z,46.64
2019-03-28T03:24:01.255Z,48.95
2019-03-28T03:28:06.929Z,46.74
2019-03-28T03:32:12.622Z,50.14
2019-03-28T03:36:18.313Z,47.61
2019-03-28T03:40:24.130Z,48.59
2019-03-28T03:44:29.916Z,49.40
2019-03-28T03:48:35.656Z,51.65
2019-03-28T03:52:41.651Z,50.75
2019-03-28T03:56:47.583Z,45.44
2019-03-28T04:00:53.306Z,48.25
2019-03-28T04:04:58.988Z,52.64
2019-03-28T04:09:06.131Z,51.98
2019-03-28T04:13:11.836Z,50.07
2019-03-28T04:17:17.605Z,48.84
2019-03-28T04:21:23.322Z,49.45
2019-03-28T04:25:29.076Z,46.94
2019-03-28T04:29:34.741Z,48.34
2019-03-28T04:33:40.537Z,47.48
2019-03-28T04:37:47.456Z,54.71
2019-03-28T04:41:53.124Z,50.16
2019-03-28T04:45:58.879Z,49.95
2019-03-28T04:50:06.594Z,48.05
2019-03-28T04:54:12.301Z,45.24
2019-03-28T04:58:17.969Z,46.46
2019-03-28T05:02:23.657Z,50.08
2019-03-28T05:06:29.344Z,52.28
2019-03-28T05:10:36.009Z,50.48
2019-03-28T05:14:41.693Z,51.83
2019-03-28T05:18:47.376Z,50.32
2019-03-28T05:22:54.107Z,50.06
2019-03-28T05:26:59.805Z,50.49
2019-03-28T05:31:05.468Z,45.81
2019-03-28T05:35:11.501Z,55.49
2019-03-28T05:39:17.192Z,50.79
2019-03-28T05:43:22.892Z,51.88
2019-03-28T05:47:29.440Z,51.45
2019-03-28T05:51:35.204Z,48.07
2019-03-28T05:55:40.895Z,51.29
2019-03-28T05:59:46.581Z,49.92
2019-03-28T06:03:52.268Z,46.75
2019-03-28T06:07:57.934Z,47.52
2019-03-28T06:12:03.720Z,50.47
2019-03-28T06:16:09.405Z,48.19
2019-03-28T06:20:15.434Z,49.74
2019-03-28T06:24:21.122Z,47.23
2019-03-28T06:28:26.876Z,48.67
2019-03-28T06:32:42.233Z,48.62
2019-03-28T06:36:40.504Z,43.25
2019-03-28T06:40:46.462Z,43.16
2019-03-28T06:44:52.173Z,43.48
2019-03-28T06:48:57.837Z,46.79
2019-03-28T06:53:03.530Z,43.93
2019-03-28T06:57:09.275Z,40.60
2019-03-28T07:01:15.215Z,40.14
2019-03-28T07:05:22.266Z,38.93
2019-03-28T07:09:27.964Z,38.34
2019-03-28T07:13:33.797Z,40.93
2019-03-28T07:17:39.488Z,40.60
2019-03-28T07:21:45.229Z,38.54
2019-03-28T07:25:50.902Z,37.65
2019-03-28T07:29:56.599Z,35.82
2019-03-28T07:34:02.294Z,36.55
2019-03-28T07:38:08.068Z,35.39
2019-03-28T07:42:13.763Z,35.26
2019-03-28T07:46:19.449Z,38.00
2019-03-28T07:50:26.127Z,32.65
2019-03-28T07:54:31.822Z,34.43
2019-03-28T07:58:38.617Z,34.58
2019-03-28T08:02:44.290Z,32.54
2019-03-28T08:06:51.205Z,31.10
2019-03-28T08:10:57.550Z,32.09
2019-03-28T08:15:04.763Z,29.32
2019-03-28T08:19:11.460Z,29.30
2019-03-28T08:23:17.332Z,31.50
2019-03-28T08:27:23.087Z,30.11
2019-03-28T08:31:28.903Z,28.46
2019-03-28T08:35:37.316Z,27.20
2019-03-28T08:39:44.674Z,26.78
2019-03-28T08:43:50.497Z,26.97
2019-03-28T08:47:56.233Z,27.79
2019-03-28T08:52:01.928Z,25.71
2019-03-28T08:56:07.700Z,25.49
2019-03-28T09:00:16.733Z,25.11
2019-03-28T09:04:22.978Z,25.08
2019-03-28T09:08:28.652Z,25.72
2019-03-28T09:12:35.367Z,22.54
2019-03-28T09:16:41.467Z,22.33
2019-03-28T09:20:47.333Z,22.62
2019-03-28T09:25:17.595Z,21.25
2019-03-28T09:29:23.345Z,22.94
2019-03-28T09:33:30.080Z,21.66
2019-03-28T09:37:35.797Z,20.54
2019-03-28T09:42:18.100Z,20.86
2019-03-28T09:46:23.775Z,21.66
2019-03-28T09:50:29.492Z,21.75
2019-03-28T09:54:36.316Z,21.23
2019-03-28T09:58:42.006Z,20.35
2019-03-28T10:02:49.286Z,22.46
2019-03-28T10:06:55.023Z,21.51
2019-03-28T10:11:00.701Z,22.63
2019-03-28T10:15:09.453Z,21.34
2019-03-28T10:19:17.826Z,21.55
2019-03-28T10:23:23.514Z,21.54
2019-03-28T10:27:29.218Z,21.34
2019-03-28T10:31:34.992Z,21.11
2019-03-28T10:35:40.806Z,19.48
2019-03-28T10:39:46.533Z,18.61
2019-03-28T10:43:52.243Z,19.54
2019-03-28T10:47:58.082Z,20.14
2019-03-28T10:52:04.155Z,19.65
2019-03-28T10:56:21.048Z,18.14
2019-03-28T11:05:35.420Z,17.80
2019-03-28T11:09:41.229Z,17.95
2019-03-28T11:13:46.941Z,18.17
2019-03-28T11:17:52.662Z,20.70
2019-03-28T11:21:58.354Z,20.58
2019-03-28T11:26:04.115Z,19.37
2019-03-28T11:30:10.721Z,18.42
2019-03-28T11:34:16.528Z,17.31
2019-03-28T11:38:22.220Z,16.71
2019-03-28T11:42:27.995Z,17.13
2019-03-28T11:46:33.712Z,16.36
2019-03-28T11:50:39.432Z,16.25
2019-03-28T11:54:45.122Z,16.47
2019-03-28T11:58:50.809Z,16.13
2019-03-28T12:02:56.506Z,16.61
2019-03-28T12:07:02.205Z,17.08
2019-03-28T12:11:07.919Z,18.09
2019-03-28T12:15:14.234Z,19.62
2019-03-28T12:19:19.937Z,20.55
2019-03-28T12:23:25.690Z,21.09
2019-03-28T12:27:31.378Z,21.88
2019-03-28T12:31:37.077Z,23.08
2019-03-28T12:35:42.851Z,24.92
2019-03-28T12:39:48.531Z,24.87
2019-03-28T12:43:54.231Z,25.28
2019-03-28T12:47:59.916Z,25.55
2019-03-28T12:52:07.327Z,25.92
2019-03-28T12:56:13.034Z,26.34
2019-03-28T13:00:23.308Z,28.09
2019-03-28T13:04:29.003Z,28.23
2019-03-28T13:08:34.725Z,27.27
2019-03-28T13:12:40.553Z,27.00
2019-03-28T13:16:46.266Z,27.79
2019-03-28T13:20:52.038Z,28.54
2019-03-28T13:24:57.721Z,28.33
2019-03-28T13:29:03.472Z,27.29
2019-03-28T13:33:10.688Z,27.51
2019-03-28T13:37:16.377Z,27.41
2019-03-28T13:41:22.074Z,26.74
2019-03-28T13:45:27.777Z,25.78
2019-03-28T13:49:33.463Z,26.46
2019-03-28T13:53:40.081Z,26.40
2019-03-28T13:57:45.843Z,27.66
2019-03-28T14:01:51.605Z,27.88
2019-03-28T14:05:57.308Z,27.15
2019-03-28T14:10:03.068Z,27.40
2019-03-28T14:14:08.754Z,28.34
2019-03-28T14:18:14.487Z,26.80
2019-03-28T14:22:20.199Z,28.16
2019-03-28T14:26:25.963Z,28.69
2019-03-28T14:30:31.670Z,28.91
2019-03-28T14:34:39.838Z,31.23
2019-03-28T14:38:44.774Z,28.79
2019-03-28T14:42:51.442Z,29.68
2019-03-28T14:46:57.163Z,29.01
2019-03-28T14:51:03.074Z,29.20
2019-03-28T14:55:09.010Z,27.80
2019-03-28T14:59:15.487Z,28.12
2019-03-28T15:03:26.665Z,28.93
2019-03-28T15:07:28.803Z,30.43
2019-03-28T15:11:34.511Z,30.18
2019-03-28T15:15:40.199Z,31.85
2019-03-28T15:19:45.941Z,31.64
2019-03-28T15:23:51.683Z,32.42
2019-03-28T15:27:57.517Z,32.93
2019-03-28T15:32:03.306Z,32.94
2019-03-28T15:36:09.026Z,33.29
2019-03-28T15:40:16.483Z,33.58
2019-03-28T15:44:22.175Z,33.48
2019-03-28T15:48:27.875Z,33.59
2019-03-28T15:52:33.571Z,33.30
2019-03-28T15:56:39.524Z,33.04
2019-03-28T16:00:45.301Z,32.97
2019-03-28T16:04:51.054Z,33.42
2019-03-28T16:08:56.748Z,33.67
2019-03-28T16:13:02.549Z,33.92
2019-03-28T16:17:09.095Z,34.00
2019-03-28T16:21:14.880Z,34.31
2019-03-28T16:25:20.578Z,34.55
2019-03-28T16:29:26.269Z,35.76
2019-03-28T16:33:32.045Z,34.40
2019-03-28T16:37:39.974Z,34.19
2019-03-28T16:41:49.627Z,34.18
2019-03-28T16:45:55.493Z,34.09
2019-03-28T16:50:03.672Z,34.31
2019-03-28T16:54:09.412Z,34.82
2019-03-28T16:58:15.190Z,34.65
2019-03-28T17:02:21.854Z,34.95
2019-03-28T17:06:27.857Z,36.13
2019-03-28T17:10:45.397Z,36.27
2019-03-28T17:14:51.740Z,35.88
2019-03-28T17:18:57.487Z,36.88
2019-03-28T17:23:03.203Z,35.93
2019-03-28T17:27:08.899Z,36.08
2019-03-28T17:31:14.601Z,36.76
2019-03-28T17:35:20.299Z,36.50
2019-03-28T17:39:26.088Z,37.38
2019-03-28T17:43:32.049Z,36.97
2019-03-28T17:47:37.755Z,37.32
2019-03-28T17:51:43.463Z,37.95
2019-03-28T17:55:49.172Z,37.17
2019-03-28T17:59:54.940Z,37.46
2019-03-28T18:04:00.812Z,38.24
2019-03-28T18:08:07.490Z,38.97
2019-03-28T18:12:13.844Z,38.67
2019-03-28T18:16:19.750Z,39.30
2019-03-28T18:20:25.619Z,39.32
2019-03-28T18:24:33.025Z,38.52
2019-03-28T18:37:10.577Z,39.08
2019-03-28T18:41:16.316Z,39.78
2019-03-28T18:45:22.047Z,39.41
2019-03-28T18:49:27.749Z,40.42
2019-03-28T18:53:33.510Z,39.04
2019-03-28T18:57:39.821Z,39.32
2019-03-28T19:01:45.574Z,39.86
2019-03-28T19:05:51.284Z,38.77
2019-03-28T19:09:56.994Z,38.99
2019-03-28T19:14:02.791Z,38.96
2019-03-28T19:18:08.557Z,39.59
2019-03-28T19:22:14.285Z,39.42
2019-03-28T19:26:19.994Z,39.21
2019-03-28T19:30:32.709Z,38.88
2019-03-28T19:34:38.411Z,39.99
2019-03-28T19:38:44.526Z,39.26
2019-03-28T19:42:50.249Z,39.01
2019-03-28T19:46:55.969Z,39.11
2019-03-28T19:51:02.270Z,39.24
2019-03-28T19:55:08.522Z,39.11
2019-03-28T19:59:14.378Z,39.94
2019-03-28T20:03:23.078Z,40.17
2019-03-28T20:07:27.473Z,39.41
2019-03-28T20:11:33.300Z,39.65
2019-03-28T20:15:39.476Z,39.74
2019-03-28T20:19:45.256Z,39.69
2019-03-28T20:23:50.965Z,40.13
2019-03-28T20:27:56.722Z,39.63
2019-03-28T20:32:02.422Z,40.24
2019-03-28T20:36:35.659Z,39.74
2019-03-28T20:40:16.199Z,39.73
2019-03-28T20:44:22.018Z,39.65
2019-03-28T20:48:27.924Z,39.52
2019-03-28T20:52:33.645Z,40.09
2019-03-28T20:56:39.332Z,39.83
2019-03-28T21:00:47.780Z,40.31
2019-03-28T21:04:53.547Z,40.14
2019-03-28T21:08:59.250Z,39.95
2019-03-28T21:13:06.536Z,39.83
2019-03-28T21:17:12.295Z,40.80
2019-03-28T21:21:18.081Z,39.91
2019-03-28T21:25:23.791Z,40.48
2019-03-28T21:29:29.510Z,40.39
2019-03-28T21:33:35.235Z,40.17
2019-03-28T21:37:40.940Z,40.17
2019-03-28T21:41:46.639Z,40.24
2019-03-28T21:45:52.391Z,40.35
2019-03-28T21:49:58.093Z,40.50
2019-03-28T21:54:05.141Z,40.62
2019-03-28T21:59:17.814Z,40.96
2019-03-28T22:03:23.590Z,41.31
2019-03-28T22:08:17.383Z,41.38
2019-03-28T22:12:23.079Z,41.72
2019-03-28T22:16:28.791Z,41.56
2019-03-28T22:20:34.538Z,41.56
2019-03-28T22:24:40.235Z,41.70
2019-03-28T22:28:46.505Z,41.75
2019-03-28T22:32:52.231Z,41.90
2019-03-28T22:36:59.973Z,42.08
2019-03-28T22:41:20.203Z,41.98
2019-03-28T22:45:25.894Z,42.79
2019-03-28T22:49:31.936Z,42.36
2019-03-28T22:53:37.787Z,42.74
2019-03-28T22:57:43.531Z,42.69
2019-03-28T23:01:49.375Z,42.86
2019-03-28T23:05:55.062Z,42.40
2019-03-28T23:10:00.860Z,42.38
2019-03-28T23:14:07.730Z,43.22
2019-03-28T23:18:13.872Z,42.79
2019-03-28T23:22:19.525Z,43.19
2019-03-28T23:26:25.215Z,44.02
2019-03-28T23:30:31.039Z,43.58
2019-03-28T23:34:36.715Z,44.59
2019-03-28T23:38:42.438Z,44.52
2019-03-28T23:42:49.139Z,43.85
2019-03-28T23:46:54.906Z,44.67
2019-03-28T23:51:00.654Z,46.23
2019-03-28T23:55:08.701Z,44.68
2019-03-28T23:59:14.412Z,45.45
